Berkley, Michigan
Current Conditions -  °F | °C
As of 2:55 PM on Thursday 18 Dec 2014 (Local Time) from KVLL Reporting Station
Overcast Overcast  
Wind Chill: 30°   Ceiling: 1800
Heat Index: 34°   Visibility: 10mi
Dew Point: 28°   Wind: 5mph
Humidity: 81%   Direction: 330°NNW
Pressure: 30.16"   Gusts: NA
Location:  42.5°N, 83.18°W
Report Text: KVLL 181955Z AUTO 33004KT 10SM BKN018 OVC024 01/M02 A3016 RMK AO2 T00101020
Loading
Personal Weather Stations






























Interactive Weather Map New forecast layout! Learn more

10-Day Weather Forecast

Advertisements
Track Severe Weather on mobile